CheckWX is a tool to help pilots better visualize weather data.  It is not intended as a substitute for an official pre-flight weather briefing.

05:15:32 UTC

KGSB METAR
Seymour Johnson AFB Airport
Goldsboro, North Carolina, USA
Current

20 mins ago

KGSB 240456Z AUTO 00000KT 10SM OVC007 07/06 A3006 RMK AO2 CIG 004 RWY26 SLP183 T00710064 400830047 $
Observed
Feb-24 @ 04:56 UTC
Visibility
10 SM
Flight Rules
IFR
Cloud Levels
  • Overcast at 700' AGL
Temperature
C / 45°F
Dewpoint
C / 43°F
Humidity
93%
Altimeter
30.06" Hg
Pressure
1018.3 hPa
Previous

53 mins ago

KGSB 240423Z AUTO 00000KT 10SM OVC009 07/06 A3006 RMK AO2 CIG 004V011 CIG 004 RWY26 SLP183 $
Observed
Feb-24 @ 04:23 UTC
Visibility
10 SM
Flight Rules
IFR
Cloud Levels
  • Overcast at 900' AGL
Temperature
C / 45°F
Dewpoint
C / 43°F
Humidity
93%
Altimeter
30.06" Hg
Pressure
1018.3 hPa
Previous

2 hours ago

KGSB 240306Z AUTO 29003KT 4SM -RA BR OVC009 07/06 A3010 RMK AO2 RAB05 CIG 005V009 CIG 003 RWY26 SLP196 $
Observed
Feb-24 @ 03:06 UTC
Wind
  • 290° at 3 KTS
Visibility
4 SM
Flight Rules
IFR
Conditions
Light Rain, Mist
Cloud Levels
  • Overcast at 900' AGL
Temperature
C / 45°F
Dewpoint
C / 43°F
Humidity
93%
Altimeter
30.1" Hg
Pressure
1019.6 hPa